Time;durP1;ratioP1;P1;durP2;ratioP2;P2;SDS_P1;SDS_P2;PMS_P1;PMS_P2;Temp;Humidity;BMP_temperature;BMP_pressure;BME280_temperature;BME280_humidity;BME280_pressure;Samples;Min_cycle;Max_cycle;Signal;HPM_P1;HPM_P2
2022/06/21 00:01:46;;;;;;;8.00;1.98;;;;;;;16.72;55.17;100939.75;5026624;27;97705;-71
2022/06/21 00:04:13;;;;;;;3.78;1.80;;;;;;;16.98;54.37;100935.56;5029408;27;99363;-71
2022/06/21 00:06:39;;;;;;;5.22;1.95;;;;;;;16.88;54.79;100935.22;5028715;27;98783;-72
2022/06/21 00:09:06;;;;;;;4.18;2.00;;;;;;;17.14;54.18;100937.22;5026566;28;97030;-70
2022/06/21 00:11:34;;;;;;;3.92;2.20;;;;;;;16.64;55.72;100939.31;5028148;27;96907;-71
2022/06/21 00:14:02;;;;;;;4.40;2.47;;;;;;;17.04;54.68;100935.19;5025821;27;98944;-71
2022/06/21 00:16:32;;;;;;;8.38;2.85;;;;;;;17.04;54.59;100933.38;5022960;27;98917;-71
2022/06/21 00:18:59;;;;;;;5.97;2.13;;;;;;;16.55;55.48;100927.31;5027376;28;96895;-70
2022/06/21 00:21:29;;;;;;;6.72;2.70;;;;;;;16.79;55.62;100930.44;5023706;27;96871;-71
2022/06/21 00:23:56;;;;;;;8.80;2.45;;;;;;;17.11;54.68;100936.53;5024632;27;99861;-71
2022/06/21 00:26:26;;;;;;;8.15;2.20;;;;;;;17.07;54.39;100935.00;5024660;27;97547;-71
2022/06/21 00:28:53;;;;;;;4.03;2.30;;;;;;;17.10;54.31;100935.69;5031570;28;96866;-71
2022/06/21 00:31:22;;;;;;;7.93;2.20;;;;;;;17.20;54.00;100937.81;5029084;27;96935;-71
2022/06/21 00:33:50;;;;;;;5.57;2.47;;;;;;;17.11;54.35;100932.06;5028890;28;98927;-71
2022/06/21 00:36:23;;;;;;;3.92;2.45;;;;;;;17.01;54.62;100933.53;5030508;27;99111;-71
2022/06/21 00:38:51;;;;;;;10.13;2.50;;;;;;;16.85;55.25;100935.41;5026836;27;96985;-71
2022/06/21 00:41:20;;;;;;;7.55;2.22;;;;;;;16.84;55.22;100935.50;5028888;27;97135;-71
2022/06/21 00:43:51;;;;;;;4.35;2.53;;;;;;;16.09;57.49;100941.53;5028283;27;97816;-71
2022/06/21 00:46:27;;;;;;;7.70;2.47;;;;;;;15.90;58.30;100937.19;5031764;28;99668;-72
2022/06/21 00:48:55;;;;;;;3.92;2.25;;;;;;;16.13;57.57;100941.28;5031707;27;98669;-72
2022/06/21 00:51:28;;;;;;;5.90;2.90;;;;;;;16.20;57.30;100931.16;5031352;27;97017;-72
2022/06/21 00:53:58;;;;;;;6.00;2.50;;;;;;;16.36;57.04;100929.31;5028936;27;99109;-71
2022/06/21 00:56:29;;;;;;;7.70;2.97;;;;;;;16.48;56.39;100922.41;5032431;27;101598;-71
2022/06/21 00:58:55;;;;;;;6.65;2.67;;;;;;;16.66;55.82;100937.44;5031298;28;96908;-71
2022/06/21 01:01:25;;;;;;;7.03;3.60;;;;;;;16.87;55.34;100944.16;5028521;27;96935;-71
2022/06/21 01:03:54;;;;;;;5.65;2.30;;;;;;;16.27;56.85;100946.72;5028069;27;101798;-70
2022/06/21 01:06:27;;;;;;;6.30;2.33;;;;;;;16.51;56.20;100938.25;5023389;27;98814;-70
2022/06/21 01:08:58;;;;;;;4.20;2.17;;;;;;;16.37;56.22;100943.53;5027190;27;97170;-71
2022/06/21 01:11:42;;;;;;;4.22;2.22;;;;;;;16.34;56.57;100945.41;5031764;27;96826;-71
2022/06/21 01:14:12;;;;;;;4.68;2.15;;;;;;;16.74;55.51;100949.38;5025633;28;100009;-70
2022/06/21 01:16:40;;;;;;;7.50;2.47;;;;;;;16.77;55.10;100951.00;5027580;27;99595;-70
2022/06/21 01:19:14;;;;;;;7.82;2.40;;;;;;;16.75;55.30;100934.22;5027811;28;96791;-70
2022/06/21 01:21:48;;;;;;;5.72;2.25;;;;;;;16.69;55.64;100942.56;5022393;27;98934;-70
2022/06/21 01:24:22;;;;;;;4.90;2.22;;;;;;;16.93;54.95;100951.00;5025633;27;98908;-71
2022/06/21 01:26:55;;;;;;;4.97;2.50;;;;;;;16.66;55.56;100948.97;5026685;27;98820;-71
2022/06/21 01:29:26;;;;;;;5.30;2.13;;;;;;;16.50;56.18;100942.75;5027238;27;96791;-71
2022/06/21 01:31:55;;;;;;;5.50;2.67;;;;;;;16.68;55.76;100949.72;5024382;27;97481;-71
2022/06/21 01:34:24;;;;;;;9.75;2.45;;;;;;;16.78;55.44;100942.06;5025792;27;98317;-70
2022/06/21 01:36:54;;;;;;;4.60;2.30;;;;;;;16.44;56.33;100950.22;5026790;27;99155;-72
2022/06/21 01:39:25;;;;;;;6.20;2.35;;;;;;;16.34;57.02;100944.56;5027208;27;96773;-73
2022/06/21 01:41:59;;;;;;;7.85;3.22;;;;;;;16.35;57.16;100946.25;5027976;27;97034;-71
2022/06/21 01:44:30;;;;;;;8.70;5.05;;;;;;;16.29;57.39;100962.59;5028029;27;99413;-71
2022/06/21 01:47:00;;;;;;;4.43;2.50;;;;;;;16.35;57.22;100944.47;5029752;27;98276;-71
2022/06/21 01:49:31;;;;;;;5.03;2.60;;;;;;;15.81;59.45;100950.19;5028984;27;97829;-71
2022/06/21 01:52:02;;;;;;;6.45;2.60;;;;;;;15.80;59.75;100945.78;5031001;27;97411;-71
2022/06/21 01:54:34;;;;;;;8.70;2.58;;;;;;;16.27;58.43;100943.19;5029963;27;101712;-72
2022/06/21 01:57:02;;;;;;;5.75;2.83;;;;;;;16.72;56.62;100947.75;5031185;27;98955;-72
2022/06/21 01:59:33;;;;;;;3.45;2.35;;;;;;;16.09;58.45;100950.38;5028188;28;96719;-71
2022/06/21 02:02:02;;;;;;;4.20;2.88;;;;;;;16.17;58.13;100958.81;5027048;27;96762;-71
2022/06/21 02:04:32;;;;;;;6.97;3.03;;;;;;;16.30;58.08;100951.88;5028045;27;98358;-71
2022/06/21 02:07:02;;;;;;;8.32;3.08;;;;;;;16.61;57.17;100959.03;5030867;27;99268;-70
2022/06/21 02:09:36;;;;;;;6.78;2.90;;;;;;;15.95;59.17;100961.78;5030802;27;96846;-71
2022/06/21 02:12:07;;;;;;;8.07;2.80;;;;;;;16.28;58.00;100961.75;5029869;27;97676;-71
2022/06/21 02:14:38;;;;;;;7.00;2.63;;;;;;;16.27;58.43;100961.84;5023078;27;99351;-70
2022/06/21 02:17:15;;;;;;;7.35;2.72;;;;;;;16.09;58.70;100955.72;5029073;27;99198;-70
2022/06/21 02:19:47;;;;;;;4.18;2.15;;;;;;;15.97;59.12;100959.06;5027627;27;97292;-72
2022/06/21 02:22:18;;;;;;;8.98;2.75;;;;;;;15.73;59.74;100958.59;5030898;27;96894;-71
2022/06/21 02:24:45;;;;;;;7.32;2.80;;;;;;;16.15;58.62;100955.38;5031695;27;98934;-71
2022/06/21 02:27:16;;;;;;;7.63;2.97;;;;;;;15.98;59.31;100952.78;5030762;27;100611;-71
2022/06/21 02:29:48;;;;;;;10.52;3.67;;;;;;;15.92;59.18;100953.13;5028536;27;96914;-71
2022/06/21 02:32:19;;;;;;;4.95;2.58;;;;;;;15.91;59.55;100951.41;5019154;27;97232;-71
2022/06/21 02:34:49;;;;;;;8.52;2.70;;;;;;;15.68;60.34;100949.97;5027020;27;97877;-71
2022/06/21 02:37:16;;;;;;;6.18;2.95;;;;;;;15.84;60.01;100950.88;5030889;27;99180;-71
2022/06/21 02:39:44;;;;;;;5.45;2.72;;;;;;;15.72;60.20;100958.66;5027935;27;97578;-71
2022/06/21 02:42:18;;;;;;;8.18;2.90;;;;;;;16.12;58.70;100952.91;5030070;27;96882;-70
2022/06/21 02:44:49;;;;;;;6.93;2.70;;;;;;;16.04;58.86;100959.56;5024976;27;99371;-70
2022/06/21 02:47:22;;;;;;;8.32;3.17;;;;;;;15.69;60.04;100969.47;5028440;27;96854;-71
2022/06/21 02:49:53;;;;;;;11.00;2.67;;;;;;;15.68;60.38;100973.09;5026254;28;98630;-71
2022/06/21 02:52:24;;;;;;;9.55;3.03;;;;;;;15.78;59.79;100967.19;5022643;27;96894;-71
2022/06/21 02:54:55;;;;;;;5.93;3.58;;;;;;;15.96;59.47;100968.00;5028472;27;97753;-71
2022/06/21 02:57:30;;;;;;;10.55;3.10;;;;;;;15.83;59.63;100964.25;5029076;27;98929;-72
2022/06/21 02:59:58;;;;;;;7.53;3.10;;;;;;;15.71;60.26;100971.13;5029303;27;97672;-71
2022/06/21 03:02:27;;;;;;;8.18;3.05;;;;;;;15.66;60.41;100966.97;5027213;27;97242;-70
2022/06/21 03:04:56;;;;;;;5.35;2.60;;;;;;;15.89;59.92;100977.25;5024156;27;98971;-71
2022/06/21 03:07:25;;;;;;;8.77;2.65;;;;;;;16.20;58.81;100957.81;5028347;27;101862;-71
2022/06/21 03:09:52;;;;;;;7.47;2.85;;;;;;;15.91;59.19;100967.38;5028101;27;97140;-70
2022/06/21 03:12:23;;;;;;;9.07;2.90;;;;;;;16.30;58.30;100965.19;5019682;27;97469;-70
2022/06/21 03:14:56;;;;;;;11.05;3.05;;;;;;;15.90;59.69;100973.66;5028482;27;102097;-71
2022/06/21 03:17:28;;;;;;;7.25;3.35;;;;;;;16.01;59.60;100965.97;5022485;28;98748;-70
2022/06/21 03:19:54;;;;;;;8.38;4.20;;;;;;;15.90;59.95;100976.31;5024669;27;98816;-70
2022/06/21 03:22:24;;;;;;;8.80;3.45;;;;;;;16.08;59.14;100977.97;5027209;27;97208;-71
2022/06/21 03:24:54;;;;;;;12.20;3.50;;;;;;;16.15;59.00;100970.50;5023876;27;98871;-71
2022/06/21 03:27:28;;;;;;;8.82;3.10;;;;;;;16.34;58.13;100972.06;5025001;27;99181;-72
2022/06/21 03:29:56;;;;;;;8.20;3.03;;;;;;;15.93;59.08;100977.03;5026267;27;97276;-72
2022/06/21 03:32:23;;;;;;;8.38;3.30;;;;;;;15.64;60.90;100979.50;5025905;27;98471;-72
2022/06/21 03:34:50;;;;;;;12.23;4.18;;;;;;;15.77;60.25;100977.91;5021583;27;98945;-71
2022/06/21 03:37:17;;;;;;;9.38;3.40;;;;;;;16.04;59.77;100973.78;5029745;27;98944;-71
2022/06/21 03:42:32;;;;;;;9.57;3.40;;;;;;;15.58;61.24;100975.38;5018251;28;98643;-70
2022/06/21 03:45:04;;;;;;;7.82;3.70;;;;;;;15.53;61.74;100988.06;5028455;27;99122;-70
2022/06/21 03:47:36;;;;;;;15.95;5.90;;;;;;;16.01;60.39;100991.75;5029545;27;99082;-72
2022/06/21 03:50:06;;;;;;;14.75;4.22;;;;;;;16.20;59.76;100996.00;5026213;28;98437;-71
2022/06/21 03:52:42;;;;;;;10.40;3.35;;;;;;;16.52;58.79;100998.69;5018778;27;98048;-71
2022/06/21 03:55:15;;;;;;;;;;;;;;;16.30;59.04;100991.88;5027530;27;97707;-72
2022/06/21 03:57:48;;;;;;;12.25;3.60;;;;;;;16.57;58.62;100997.47;5028640;27;99080;-71
2022/06/21 04:00:20;;;;;;;11.80;3.40;;;;;;;16.84;57.72;100997.75;5031120;27;98191;-72
2022/06/21 04:02:51;;;;;;;7.75;3.28;;;;;;;16.43;58.72;101000.03;5027683;27;97601;-72
2022/06/21 04:05:23;;;;;;;8.35;3.22;;;;;;;16.30;59.65;101005.19;5029399;27;99389;-72
2022/06/21 04:07:56;;;;;;;7.78;2.58;;;;;;;16.58;58.66;101003.66;5028763;28;99350;-72
2022/06/21 04:10:30;;;;;;;9.85;3.25;;;;;;;16.77;57.96;101001.72;5033329;27;96776;-74
2022/06/21 04:13:07;;;;;;;5.45;3.00;;;;;;;16.82;57.66;101007.63;5030146;27;96715;-71
2022/06/21 04:15:41;;;;;;;8.93;2.78;;;;;;;17.05;57.15;101001.84;5030234;28;98915;-71
2022/06/21 04:18:16;;;;;;;10.55;2.47;;;;;;;17.20;56.74;101009.91;5027468;27;99037;-70
2022/06/21 04:20:49;;;;;;;4.97;2.50;;;;;;;17.35;56.39;101007.19;5026248;27;96813;-70
2022/06/21 04:23:24;;;;;;;11.02;2.95;;;;;;;17.14;57.05;101011.97;5031687;27;97472;-70
2022/06/21 04:25:55;;;;;;;8.52;3.17;;;;;;;16.46;59.48;101018.56;5028794;27;98901;-70
2022/06/21 04:28:26;;;;;;;9.05;3.75;;;;;;;16.25;60.26;101017.06;5027059;27;97835;-71
2022/06/21 04:30:59;;;;;;;8.65;2.85;;;;;;;16.92;58.22;101016.84;5029300;27;96951;-70
2022/06/21 04:33:32;;;;;;;11.25;3.10;;;;;;;16.81;58.19;101019.25;5031521;27;97280;-71
2022/06/21 04:36:03;;;;;;;13.80;3.15;;;;;;;16.57;59.10;101017.94;5029335;27;102039;-71
2022/06/21 04:38:35;;;;;;;10.55;2.92;;;;;;;16.14;61.01;101038.13;5027059;27;97643;-71
2022/06/21 04:41:07;;;;;;;15.02;3.35;;;;;;;16.65;59.19;101039.75;5027474;27;96768;-70
2022/06/21 04:43:40;;;;;;;12.57;3.13;;;;;;;16.90;58.39;101034.75;5026482;27;96952;-69
2022/06/21 04:46:14;;;;;;;7.88;3.03;;;;;;;16.75;58.99;101048.97;5030728;27;102021;-70
2022/06/21 04:48:46;;;;;;;10.38;2.92;;;;;;;17.33;57.58;101056.28;5031110;27;99124;-71
2022/06/21 04:51:18;;;;;;;9.25;4.07;;;;;;;17.72;55.80;101045.09;5029557;28;96929;-71
2022/06/21 04:53:58;;;;;;;21.20;3.70;;;;;;;18.08;55.04;101050.00;5032576;27;96822;-72
2022/06/21 04:56:33;;;;;;;7.68;2.75;;;;;;;17.66;55.98;101040.97;5032414;27;98544;-71
2022/06/21 04:59:02;;;;;;;8.83;3.00;;;;;;;17.59;55.97;101052.94;5025434;27;98937;-71
2022/06/21 05:01:37;;;;;;;16.95;3.30;;;;;;;17.38;56.80;101054.22;5030008;28;96866;-71
2022/06/21 05:04:07;;;;;;;6.85;3.08;;;;;;;17.34;56.64;101061.53;5029794;27;97691;-70
2022/06/21 05:06:34;;;;;;;8.80;3.28;;;;;;;17.75;55.54;101060.94;5028906;28;99350;-71
2022/06/21 05:09:01;;;;;;;9.68;2.78;;;;;;;18.07;54.97;101069.69;5020393;27;98892;-71
2022/06/21 05:11:28;;;;;;;9.40;3.03;;;;;;;17.68;55.55;101065.78;5022628;27;97001;-71
2022/06/21 05:13:58;;;;;;;7.80;3.28;;;;;;;17.88;55.16;101057.44;5028047;27;96840;-71
2022/06/21 05:16:29;;;;;;;6.68;2.90;;;;;;;17.64;55.93;101063.41;5021850;27;100198;-71
2022/06/21 05:19:02;;;;;;;7.28;2.67;;;;;;;18.15;54.20;101068.25;5020939;27;99956;-71
2022/06/21 05:21:32;;;;;;;8.35;2.72;;;;;;;17.76;55.03;101082.25;5026413;27;97613;-70
2022/06/21 05:24:00;;;;;;;9.73;2.97;;;;;;;18.04;54.51;101073.41;5028671;27;98502;-71
2022/06/21 05:26:32;;;;;;;7.55;3.22;;;;;;;17.96;54.65;101080.19;5030732;28;98940;-71
2022/06/21 05:29:05;;;;;;;6.45;2.88;;;;;;;17.79;54.90;101090.06;5032697;27;98812;-71
2022/06/21 05:31:36;;;;;;;10.60;2.75;;;;;;;17.95;54.54;101083.78;5024507;27;97835;-72
2022/06/21 05:34:11;;;;;;;8.73;2.55;;;;;;;17.74;54.38;101091.28;5025532;27;97018;-71
2022/06/21 05:36:41;;;;;;;6.63;2.38;;;;;;;17.66;55.11;101089.06;5028875;27;98559;-70
2022/06/21 05:39:14;;;;;;;8.57;3.15;;;;;;;18.12;53.87;101097.84;5029804;28;99255;-71
2022/06/21 05:41:44;;;;;;;10.55;3.08;;;;;;;18.40;52.87;101085.44;5029298;27;97237;-72
2022/06/21 05:44:14;;;;;;;7.88;2.35;;;;;;;17.68;54.43;101088.97;5031784;27;97675;-71
2022/06/21 05:46:46;;;;;;;8.02;2.40;;;;;;;18.35;52.62;101088.41;5025975;27;98955;-71
2022/06/21 05:49:22;;;;;;;11.57;2.63;;;;;;;18.44;52.09;101092.34;5028776;27;98862;-70
2022/06/21 05:51:49;;;;;;;;;;;;;;;18.11;53.13;101080.13;5031804;27;96776;-71
2022/06/21 05:54:22;;;;;;;8.43;2.25;;;;;;;18.12;52.97;101088.97;5032811;28;98881;-71
2022/06/21 05:56:50;;;;;;;6.97;2.35;;;;;;;17.62;54.66;101092.03;5031323;27;99288;-72
2022/06/21 05:59:19;;;;;;;10.52;2.90;;;;;;;18.06;53.70;101100.03;5029988;27;99070;-72
2022/06/21 06:01:51;;;;;;;8.15;1.92;;;;;;;17.96;53.15;101098.88;5033453;27;96700;-72
2022/06/21 06:04:25;;;;;;;10.98;2.72;;;;;;;18.25;52.50;101097.94;5032314;27;97772;-72
2022/06/21 06:06:55;;;;;;;8.30;2.22;;;;;;;18.42;51.81;101100.47;5026766;27;99240;-71
2022/06/21 06:09:26;;;;;;;8.35;2.33;;;;;;;18.18;52.43;101096.63;5033559;27;98793;-71
2022/06/21 06:12:02;;;;;;;11.25;2.55;;;;;;;18.56;51.80;101102.31;5026493;27;99031;-72
2022/06/21 06:14:34;;;;;;;10.25;2.65;;;;;;;18.76;50.50;101087.66;5027100;28;96664;-71
2022/06/21 06:17:06;;;;;;;8.05;1.80;;;;;;;18.97;50.46;101086.28;5027087;27;99061;-71
2022/06/21 06:19:39;;;;;;;9.13;2.03;;;;;;;19.11;49.79;101088.91;5031296;27;99008;-71
2022/06/21 06:22:18;;;;;;;9.07;3.03;;;;;;;18.95;50.31;101096.22;5031444;27;96606;-71
2022/06/21 06:24:51;;;;;;;7.75;1.88;;;;;;;19.30;49.28;101101.94;5028309;27;96840;-72
2022/06/21 06:27:27;;;;;;;8.93;1.90;;;;;;;19.40;48.93;101098.56;5032823;27;99241;-73
2022/06/21 06:29:57;;;;;;;13.10;2.60;;;;;;;19.05;49.75;101094.66;5026108;27;99166;-71
2022/06/21 06:32:30;;;;;;;7.03;2.45;;;;;;;19.69;48.70;101101.16;5030053;27;97709;-72
2022/06/21 06:34:58;;;;;;;9.13;1.88;;;;;;;19.79;48.29;101099.53;5023490;28;96719;-70
2022/06/21 06:37:31;;;;;;;9.60;2.28;;;;;;;20.02;47.26;101100.66;5020542;28;99482;-71
2022/06/21 06:39:59;;;;;;;8.77;2.58;;;;;;;19.58;47.84;101099.19;5022969;27;98831;-70
2022/06/21 06:42:27;;;;;;;9.43;2.33;;;;;;;20.47;46.49;101110.03;5028543;27;97135;-71
2022/06/21 06:45:28;;;;;;;8.77;2.47;;;;;;;20.55;45.77;101097.75;5027739;27;96822;-72
2022/06/21 06:48:03;;;;;;;7.88;1.92;;;;;;;20.58;45.51;101088.63;5014788;28;101977;-71
2022/06/21 06:50:35;;;;;;;11.77;2.13;;;;;;;20.13;46.80;101090.91;5023797;27;98929;-72
2022/06/21 06:53:04;;;;;;;7.93;2.00;;;;;;;20.94;45.11;101093.16;5032220;27;96896;-74
2022/06/21 06:55:35;;;;;;;7.55;2.15;;;;;;;21.07;44.41;101099.34;5026700;27;96823;-72
2022/06/21 06:58:06;;;;;;;11.82;1.70;;;;;;;21.48;43.54;101099.00;5021985;27;98392;-71
2022/06/21 07:00:39;;;;;;;10.82;2.60;;;;;;;21.26;43.79;101106.97;5023991;28;98849;-72
2022/06/21 07:03:11;;;;;;;10.55;2.05;;;;;;;21.25;44.09;101105.25;5028348;27;96840;-72
2022/06/21 07:05:44;;;;;;;9.10;1.75;;;;;;;21.65;42.63;101097.72;5025809;27;98327;-71
2022/06/21 07:08:18;;;;;;;7.75;1.83;;;;;;;21.53;41.87;101095.97;5028964;28;100626;-71
2022/06/21 07:10:48;;;;;;;7.97;1.83;;;;;;;21.61;41.97;101098.91;5030430;27;98061;-71
2022/06/21 07:13:15;;;;;;;8.68;1.90;;;;;;;21.33;42.73;101106.38;5032333;27;96822;-72
2022/06/21 07:15:44;;;;;;;4.85;1.70;;;;;;;21.20;42.57;101105.56;5027766;27;96839;-72
2022/06/21 07:18:15;;;;;;;7.72;2.35;;;;;;;21.13;42.60;101098.06;5032173;27;98899;-72
2022/06/21 07:20:45;;;;;;;9.05;1.90;;;;;;;21.53;41.86;101091.44;5032005;27;99893;-72
2022/06/21 07:23:15;;;;;;;7.82;1.50;;;;;;;21.41;41.38;101087.84;5030906;27;97160;-73
2022/06/21 07:25:46;;;;;;;10.07;1.58;;;;;;;21.96;40.99;101085.50;5032391;27;97664;-71
2022/06/21 07:28:17;;;;;;;6.25;1.63;;;;;;;22.36;40.23;101092.16;5031844;27;98928;-72
2022/06/21 07:30:48;;;;;;;7.47;1.92;;;;;;;21.84;40.14;101093.50;5029237;27;98916;-71
2022/06/21 07:33:20;;;;;;;7.75;1.75;;;;;;;21.86;40.87;101093.38;5022301;27;99099;-72
2022/06/21 07:35:54;;;;;;;6.05;1.60;;;;;;;22.71;39.09;101089.31;5027326;27;98311;-72
2022/06/21 07:38:26;;;;;;;5.72;1.50;;;;;;;22.90;38.78;101080.66;5030519;27;99453;-71
2022/06/21 07:40:58;;;;;;;8.80;1.80;;;;;;;23.33;38.22;101076.13;5031271;27;97682;-72
2022/06/21 07:43:31;;;;;;;7.47;2.22;;;;;;;23.37;37.13;101076.72;5027251;27;96784;-71
2022/06/21 07:46:07;;;;;;;7.85;1.58;;;;;;;22.46;37.94;101079.66;5032261;27;97774;-72
2022/06/21 07:48:39;;;;;;;6.10;1.10;;;;;;;21.98;37.75;101078.16;5029284;27;97693;-72
2022/06/21 07:51:19;;;;;;;9.38;1.73;;;;;;;22.00;38.18;101062.75;5031553;27;99105;-72
2022/06/21 07:53:50;;;;;;;6.35;1.20;;;;;;;21.77;38.80;101068.06;5031500;27;96820;-73
2022/06/21 07:56:23;;;;;;;8.85;2.50;;;;;;;21.90;38.84;101067.09;5027484;28;97073;-73
2022/06/21 07:58:56;;;;;;;10.68;1.83;;;;;;;22.04;37.83;101066.94;5031924;28;101803;-72
2022/06/21 08:07:08;;;;;;;4.78;1.42;;;;;;;23.12;35.79;101064.41;5027679;27;96804;-71
2022/06/21 08:09:41;;;;;;;6.20;1.20;;;;;;;23.39;33.47;101069.34;5031446;27;98994;-71
2022/06/21 08:12:11;;;;;;;3.92;1.27;;;;;;;22.86;34.37;101074.66;5025795;28;99590;-71
2022/06/21 08:14:38;;;;;;;12.85;3.78;;;;;;;23.38;33.55;101062.25;5026514;28;96943;-71
2022/06/21 08:17:13;;;;;;;10.65;2.30;;;;;;;23.52;32.82;101077.28;5028436;27;97353;-71
2022/06/21 08:19:53;;;;;;;5.95;1.70;;;;;;;23.36;32.03;101083.97;5024644;28;101454;-71
2022/06/21 08:22:28;;;;;;;3.88;1.10;;;;;;;23.75;31.86;101087.88;5027058;27;98781;-71
2022/06/21 08:24:57;;;;;;;5.13;1.60;;;;;;;23.76;32.37;101086.03;5025501;28;97119;-72
2022/06/21 08:27:35;;;;;;;7.85;1.27;;;;;;;23.36;33.30;101078.56;5025529;28;98130;-71
2022/06/21 08:30:09;;;;;;;7.55;1.70;;;;;;;22.85;33.79;101078.31;5027634;27;98694;-71
2022/06/21 08:32:44;;;;;;;4.95;1.20;;;;;;;22.71;33.55;101080.41;5022738;28;101291;-71
2022/06/21 08:35:18;;;;;;;7.15;1.23;;;;;;;22.92;33.42;101090.31;5028035;28;96859;-74
2022/06/21 08:37:54;;;;;;;7.00;1.25;;;;;;;23.50;32.76;101076.59;5024251;28;96908;-71
2022/06/21 08:40:39;;;;;;;;;;;;;;;23.67;32.21;101073.31;5025919;27;98069;-73
2022/06/21 08:43:27;;;;;;;8.02;2.10;;;;;;;23.11;33.68;101081.56;5024681;28;99097;-71
2022/06/21 08:46:14;;;;;;;3.88;1.25;;;;;;;23.64;33.35;101078.97;5031227;27;97103;-72
2022/06/21 08:49:09;;;;;;;7.03;1.42;;;;;;;23.43;33.04;101070.81;5030102;28;96939;-72
2022/06/21 08:52:16;;;;;;;5.63;1.00;;;;;;;23.18;33.63;101074.69;5030637;28;99221;-72
2022/06/21 08:54:56;;;;;;;7.82;1.20;;;;;;;23.01;33.88;101080.63;5030382;28;98799;-73
2022/06/21 08:57:33;;;;;;;3.00;0.90;;;;;;;22.61;33.73;101075.75;5028970;28;96832;-72
2022/06/21 09:00:08;;;;;;;3.60;1.13;;;;;;;22.83;33.74;101071.38;5029878;27;97188;-72
2022/06/21 09:02:47;;;;;;;4.15;0.88;;;;;;;22.83;33.79;101065.97;5023883;28;101236;-71
2022/06/21 09:05:37;;;;;;;6.88;2.15;;;;;;;22.88;34.10;101061.06;5031618;27;101152;-71
2022/06/21 09:08:24;;;;;;;5.72;1.02;;;;;;;23.24;33.67;101059.84;5030508;27;96852;-72
2022/06/21 09:11:08;;;;;;;5.70;1.08;;;;;;;23.84;32.48;101064.63;5025394;28;96937;-72
2022/06/21 09:13:51;;;;;;;7.50;1.30;;;;;;;23.75;32.52;101062.72;5024851;28;100920;-71
2022/06/21 09:16:24;;;;;;;4.93;1.30;;;;;;;24.00;31.77;101062.31;5031758;27;98749;-71
2022/06/21 09:19:06;;;;;;;2.28;0.77;;;;;;;23.91;32.63;101068.50;5030569;27;96767;-74
2022/06/21 09:21:45;;;;;;;4.22;0.80;;;;;;;23.63;33.37;101067.31;5029574;28;98352;-72
2022/06/21 09:24:24;;;;;;;4.75;1.42;;;;;;;23.80;32.74;101066.75;5025996;28;99147;-72
2022/06/21 09:27:02;;;;;;;3.72;0.60;;;;;;;24.06;32.34;101067.19;5025279;28;98968;-71
2022/06/21 09:29:34;;;;;;;4.80;1.00;;;;;;;23.55;33.57;101068.97;5031468;28;97080;-72
2022/06/21 09:32:18;;;;;;;6.07;1.10;;;;;;;23.50;33.07;101079.28;5028333;27;96834;-72
2022/06/21 09:34:57;;;;;;;5.47;1.38;;;;;;;23.96;32.46;101082.44;5032070;28;100994;-72
2022/06/21 09:37:38;;;;;;;6.60;1.30;;;;;;;23.56;32.71;101073.38;5026966;28;98722;-71
2022/06/21 09:40:11;;;;;;;4.45;1.05;;;;;;;24.28;32.26;101065.34;5029614;27;96784;-73
2022/06/21 09:42:49;;;;;;;3.22;1.27;;;;;;;24.67;31.28;101069.06;5028986;27;97469;-72
2022/06/21 09:45:21;;;;;;;5.72;1.08;;;;;;;24.23;31.53;101072.00;5028431;27;99000;-72
2022/06/21 09:48:00;;;;;;;5.13;1.63;;;;;;;24.67;31.22;101063.66;5030289;28;98639;-72
2022/06/21 09:50:31;;;;;;;5.65;1.08;;;;;;;24.36;32.07;101073.63;5029654;28;96804;-71
2022/06/21 09:53:05;;;;;;;3.15;1.17;;;;;;;24.50;30.96;101070.56;5028468;28;97491;-71
2022/06/21 09:55:43;;;;;;;2.65;0.93;;;;;;;24.32;31.22;101067.63;5029279;28;98317;-71
2022/06/21 09:58:19;;;;;;;6.07;0.90;;;;;;;24.14;31.47;101066.53;5028683;27;98759;-72
2022/06/21 10:00:55;;;;;;;3.67;1.00;;;;;;;24.38;31.21;101068.94;5030314;28;97181;-71
2022/06/21 10:03:39;;;;;;;3.45;0.80;;;;;;;24.53;30.66;101070.28;5029826;27;97459;-71
2022/06/21 10:06:12;;;;;;;5.72;1.20;;;;;;;24.49;30.60;101067.00;5031122;28;98975;-72
2022/06/21 10:09:10;;;;;;;11.20;1.15;;;;;;;24.76;29.99;101073.63;5026575;28;97570;-72
2022/06/21 10:11:46;;;;;;;3.92;0.90;;;;;;;24.91;30.05;101053.38;5008739;28;97618;-71
2022/06/21 10:14:48;;;;;;;3.83;1.58;;;;;;;24.92;29.26;101058.66;5030422;28;97368;-71
2022/06/21 10:17:41;;;;;;;10.85;1.45;;;;;;;24.91;29.32;101058.78;5022958;28;98205;-72
2022/06/21 10:20:30;;;;;;;7.20;1.67;;;;;;;25.12;29.27;101061.38;5028901;27;101806;-72
2022/06/21 10:23:05;;;;;;;7.13;1.08;;;;;;;25.42;29.20;101061.25;5025804;28;96824;-70
2022/06/21 10:25:44;;;;;;;5.20;0.90;;;;;;;25.50;28.74;101052.44;5027236;28;96834;-72
2022/06/21 10:28:43;;;;;;;4.53;1.10;;;;;;;25.46;27.43;101054.56;5029125;27;99592;-73
2022/06/21 10:31:27;;;;;;;4.72;0.77;;;;;;;25.30;28.74;101073.22;5027858;28;99975;-73
2022/06/21 10:34:51;;;;;;;2.60;0.63;;;;;;;25.61;28.66;101063.97;5027813;27;97358;-72
2022/06/21 10:37:31;;;;;;;5.18;1.85;;;;;;;25.58;28.28;101069.69;4988470;28;97557;-73
2022/06/21 10:40:26;;;;;;;3.53;1.05;;;;;;;25.28;28.37;101064.38;5029785;28;98897;-72
2022/06/21 10:43:07;;;;;;;4.78;0.73;;;;;;;25.52;28.23;101062.13;5024614;28;98894;-73
2022/06/21 10:45:42;;;;;;;2.63;0.90;;;;;;;25.80;28.95;101072.06;5030917;28;96787;-71
2022/06/21 10:48:53;;;;;;;8.57;1.20;;;;;;;25.36;29.07;101068.09;5028939;28;96831;-72
2022/06/21 10:51:31;;;;;;;7.00;1.30;;;;;;;25.58;28.82;101075.09;5028507;27;97688;-72
2022/06/21 10:54:34;;;;;;;2.50;0.80;;;;;;;25.58;28.25;101072.41;5027708;28;98639;-72
2022/06/21 10:57:13;;;;;;;4.80;0.90;;;;;;;25.53;27.99;101074.66;5019668;27;97011;-71
2022/06/21 11:03:12;;;;;;;2.97;0.70;;;;;;;25.14;28.68;101067.50;5021531;28;97599;-72
2022/06/21 11:05:47;;;;;;;5.13;1.10;;;;;;;24.89;28.47;101064.31;5026213;28;97720;-72
2022/06/21 11:08:23;;;;;;;6.75;0.90;;;;;;;25.01;28.08;101067.75;5027529;27;97310;-72
2022/06/21 11:10:55;;;;;;;5.10;1.05;;;;;;;25.26;27.84;101052.84;5026118;28;97074;-71
2022/06/21 11:13:27;;;;;;;4.05;0.90;;;;;;;24.89;27.46;101056.22;5028708;27;99034;-71
2022/06/21 11:16:01;;;;;;;3.30;0.75;;;;;;;25.23;27.20;101051.28;5030736;28;98902;-71
2022/06/21 11:18:52;;;;;;;4.15;0.93;;;;;;;25.84;27.14;101052.84;5029702;28;96766;-72
2022/06/21 11:21:31;;;;;;;2.67;0.90;;;;;;;25.63;26.33;101050.31;5027013;27;97055;-72
2022/06/21 11:24:11;;;;;;;5.70;0.90;;;;;;;25.53;27.09;101050.31;5022687;28;98961;-71
2022/06/21 11:26:51;;;;;;;3.78;1.33;;;;;;;25.97;26.44;101050.69;5025224;27;98734;-74
2022/06/21 11:29:29;;;;;;;4.85;1.35;;;;;;;25.84;26.92;101048.28;5027763;28;97136;-72
2022/06/21 11:32:01;;;;;;;3.95;1.02;;;;;;;26.00;26.09;101053.09;5024640;28;97016;-72
2022/06/21 11:34:41;;;;;;;4.18;1.08;;;;;;;25.82;26.65;101049.44;5029687;28;97612;-72
2022/06/21 11:37:26;;;;;;;3.53;1.00;;;;;;;25.99;26.19;101046.00;5026784;28;100050;-71
2022/06/21 11:40:02;;;;;;;3.08;0.60;;;;;;;25.71;25.24;101045.91;5029495;27;96737;-73
2022/06/21 11:42:35;;;;;;;3.00;0.80;;;;;;;26.09;25.67;101046.81;5024385;28;97749;-73
2022/06/21 11:45:27;;;;;;;5.43;0.73;;;;;;;26.08;25.98;101045.09;5027675;28;98944;-72
2022/06/21 11:48:21;;;;;;;17.02;1.60;;;;;;;26.40;26.08;101045.56;5024122;28;98732;-73
2022/06/21 11:50:56;;;;;;;3.67;1.20;;;;;;;26.18;26.40;101052.22;5029022;27;97065;-71
2022/06/21 11:53:38;;;;;;;2.03;0.70;;;;;;;25.92;25.89;101036.75;5025789;28;97155;-72
2022/06/21 11:56:09;;;;;;;2.35;0.70;;;;;;;26.38;25.46;101057.59;5029234;28;98779;-71
2022/06/21 11:58:42;;;;;;;2.55;0.80;;;;;;;25.99;25.32;101048.69;5027810;27;99172;-73
2022/06/21 12:01:15;;;;;;;5.70;0.98;;;;;;;26.28;25.00;101049.47;5018956;28;97288;-72
2022/06/21 12:03:51;;;;;;;4.63;1.25;;;;;;;26.42;24.74;101049.00;5026239;27;96841;-73
2022/06/21 12:06:29;;;;;;;3.13;0.98;;;;;;;25.98;25.34;101049.69;5027187;27;97728;-72
2022/06/21 12:09:05;;;;;;;1.48;0.82;;;;;;;26.28;25.45;101048.63;5029881;28;98915;-72